Time;durP1;ratioP1;P1;durP2;ratioP2;P2;SDS_P1;SDS_P2;PMS_P1;PMS_P2;Temp;Humidity;BMP_temperature;BMP_pressure;BME280_temperature;BME280_humidity;BME280_pressure;Samples;Min_cycle;Max_cycle;Signal;HPM_P1;HPM_P2
2021/04/17 00:02:22;;;;;;;32.97;17.47;;;;;;;6.43;60.89;100808.20;126179;1099;104143;-77
2021/04/17 00:04:51;;;;;;;31.27;16.90;;;;;;;6.38;60.97;100803.56;126246;1099;104165;-77
2021/04/17 00:07:20;;;;;;;33.83;17.43;;;;;;;6.32;61.13;100811.03;126192;1099;104399;-77
2021/04/17 00:09:49;;;;;;;31.13;16.53;;;;;;;6.26;61.17;100804.66;126146;1098;104437;-77
2021/04/17 00:12:20;;;;;;;30.80;15.97;;;;;;;6.21;61.25;100800.87;126216;1098;102078;-77
2021/04/17 00:14:52;;;;;;;31.35;16.20;;;;;;;6.23;61.58;100800.95;126199;1099;104146;-77
2021/04/17 00:17:21;;;;;;;31.53;16.50;;;;;;;6.24;61.44;100803.66;126213;1099;104252;-77
2021/04/17 00:19:55;;;;;;;29.17;15.67;;;;;;;6.28;61.69;100792.61;126214;1099;104153;-76
2021/04/17 00:22:25;;;;;;;28.07;15.00;;;;;;;6.29;61.61;100798.70;126201;1099;104335;-76
2021/04/17 00:24:53;;;;;;;33.87;16.03;;;;;;;6.25;61.64;100801.97;126251;1099;104159;-77
2021/04/17 00:27:22;;;;;;;29.80;16.23;;;;;;;6.18;61.91;100805.02;126149;1099;105363;-77
2021/04/17 00:29:51;;;;;;;30.07;16.40;;;;;;;6.10;61.84;100805.45;126231;1099;104147;-77
2021/04/17 00:32:20;;;;;;;33.63;16.90;;;;;;;6.03;61.79;100812.81;126206;1099;104144;-77
2021/04/17 00:34:49;;;;;;;30.75;16.65;;;;;;;5.93;62.00;100811.35;126184;1099;104547;-77
2021/04/17 00:37:17;;;;;;;34.00;17.43;;;;;;;5.85;61.78;100810.01;126133;1099;104632;-77
2021/04/17 00:39:46;;;;;;;35.37;17.30;;;;;;;5.79;62.05;100801.83;126185;1098;104159;-77
2021/04/17 00:42:22;;;;;;;28.17;15.43;;;;;;;5.78;62.54;100805.23;126140;1099;105085;-77
2021/04/17 00:44:51;;;;;;;32.90;15.80;;;;;;;5.80;62.83;100816.63;126038;1099;104259;-77
2021/04/17 00:47:20;;;;;;;31.97;16.20;;;;;;;5.77;62.38;100822.56;126085;1099;104168;-77
2021/04/17 00:49:49;;;;;;;34.53;16.53;;;;;;;5.75;62.43;100814.66;126211;1099;104213;-77
2021/04/17 00:52:18;;;;;;;30.33;15.83;;;;;;;5.75;62.62;100825.08;126225;1099;104641;-77
2021/04/17 00:54:50;;;;;;;32.00;16.57;;;;;;;5.75;62.68;100827.69;126217;1098;104220;-77
2021/04/17 00:57:19;;;;;;;28.40;15.47;;;;;;;5.79;62.53;100822.66;126168;1099;104363;-77
2021/04/17 00:59:48;;;;;;;28.80;15.80;;;;;;;5.81;62.62;100832.34;126186;1099;104264;-77
2021/04/17 01:02:22;;;;;;;31.00;16.37;;;;;;;5.82;62.87;100834.15;126196;1098;104265;-77
2021/04/17 01:04:51;;;;;;;;;;;;;;;5.85;62.82;100829.13;126229;1099;104149;-77
2021/04/17 01:07:25;;;;;;;31.63;16.47;;;;;;;5.85;62.45;100831.73;126154;1099;104320;-77
2021/04/17 01:10:06;;;;;;;31.57;17.02;;;;;;;5.87;62.95;100831.82;126229;1099;104284;-77
2021/04/17 01:12:39;;;;;;;28.80;16.23;;;;;;;5.84;62.72;100824.71;126173;1099;104249;-76
2021/04/17 01:15:10;;;;;;;33.20;17.20;;;;;;;5.81;62.74;100827.13;126199;1099;104149;-76
2021/04/17 01:17:41;;;;;;;34.23;16.80;;;;;;;5.76;62.89;100824.28;126116;1099;104229;-76
2021/04/17 01:20:17;;;;;;;33.13;17.37;;;;;;;5.69;62.51;100821.22;126196;1099;104216;-76
2021/04/17 01:22:54;;;;;;;31.00;18.17;;;;;;;5.65;62.83;100822.71;126229;1099;104166;-76
2021/04/17 01:25:24;;;;;;;32.47;17.43;;;;;;;5.62;63.17;100827.73;126188;1099;104267;-76
2021/04/17 01:27:53;;;;;;;33.50;17.00;;;;;;;5.60;62.96;100831.96;126147;1099;104538;-76
2021/04/17 01:30:24;;;;;;;35.93;18.23;;;;;;;5.59;63.07;100832.75;126246;1099;104306;-76
2021/04/17 01:32:53;;;;;;;35.87;17.47;;;;;;;5.56;63.09;100837.77;126206;1099;104150;-76
2021/04/17 01:35:23;;;;;;;34.63;17.30;;;;;;;5.53;63.02;100837.58;126228;1099;104147;-76
2021/04/17 01:38:07;;;;;;;32.23;16.40;;;;;;;5.53;63.09;100833.30;126088;1099;104332;-76
2021/04/17 01:40:38;;;;;;;33.25;17.17;;;;;;;5.56;63.06;100837.77;126243;1099;104159;-76
2021/04/17 01:43:08;;;;;;;30.63;17.13;;;;;;;5.58;62.93;100846.59;126228;1099;104281;-76
2021/04/17 01:45:38;;;;;;;34.67;17.43;;;;;;;5.60;63.07;100844.98;126215;1099;104146;-76
2021/04/17 01:48:11;;;;;;;34.67;18.60;;;;;;;5.59;63.29;100848.38;126125;1099;104281;-77
2021/04/17 01:50:42;;;;;;;33.20;18.03;;;;;;;5.60;63.57;100852.78;126188;1099;104153;-77
2021/04/17 01:53:19;;;;;;;34.20;17.80;;;;;;;5.57;63.22;100847.39;126200;1099;104166;-78
2021/04/17 01:55:48;;;;;;;36.87;18.10;;;;;;;5.53;63.42;100854.13;126125;1099;104159;-75
2021/04/17 01:58:24;;;;;;;35.87;17.53;;;;;;;5.46;63.74;100851.94;126196;1099;104277;-76
2021/04/17 02:00:56;;;;;;;31.30;16.23;;;;;;;5.38;63.16;100850.57;126217;1099;104211;-76
2021/04/17 02:03:25;;;;;;;35.70;18.80;;;;;;;5.30;63.17;100863.10;126200;1099;104197;-76
2021/04/17 02:05:55;;;;;;;34.83;18.93;;;;;;;5.23;63.33;100858.30;126236;1099;104143;-76
2021/04/17 02:08:24;;;;;;;39.00;18.20;;;;;;;5.15;63.41;100851.73;126174;1099;104156;-77
2021/04/17 02:10:53;;;;;;;37.00;18.03;;;;;;;5.08;63.54;100850.45;126205;1097;104239;-77
2021/04/17 02:13:22;;;;;;;33.93;17.73;;;;;;;5.10;63.44;100847.95;126233;1099;104149;-77
2021/04/17 02:15:51;;;;;;;35.17;17.97;;;;;;;5.15;63.70;100850.02;126188;1099;104143;-77
2021/04/17 02:18:26;;;;;;;33.97;18.07;;;;;;;5.17;63.89;100855.32;126196;1099;105503;-77
2021/04/17 02:21:06;;;;;;;34.53;17.83;;;;;;;5.20;63.76;100861.64;126241;1098;104250;-77
2021/04/17 02:23:36;;;;;;;34.47;19.13;;;;;;;5.18;63.66;100863.22;126228;1099;104226;-77
2021/04/17 02:26:06;;;;;;;36.87;19.97;;;;;;;5.18;63.84;100865.82;126235;1099;104395;-77
2021/04/17 02:28:35;;;;;;;35.70;19.00;;;;;;;5.14;64.09;100868.13;126147;1099;104661;-77
2021/04/17 02:31:05;;;;;;;35.00;18.37;;;;;;;5.06;63.64;100861.55;126241;1099;104286;-77
2021/04/17 02:33:33;;;;;;;34.20;18.30;;;;;;;5.03;63.89;100870.05;126205;1099;104300;-77
2021/04/17 02:36:03;;;;;;;37.37;20.07;;;;;;;4.99;64.49;100868.08;126224;1099;104272;-77
2021/04/17 02:38:32;;;;;;;38.10;20.90;;;;;;;4.94;63.90;100872.06;126138;1099;104150;-77
2021/04/17 02:41:01;;;;;;;35.50;18.13;;;;;;;4.91;64.05;100862.38;126168;1098;104172;-76
2021/04/17 02:43:29;;;;;;;32.17;17.60;;;;;;;4.91;64.11;100864.98;126165;1099;104156;-77
2021/04/17 02:45:58;;;;;;;35.77;16.90;;;;;;;4.91;64.33;100862.38;126192;1099;104159;-76
2021/04/17 02:48:27;;;;;;;32.40;16.83;;;;;;;4.93;64.16;100865.97;126163;1099;104291;-77
2021/04/17 02:50:56;;;;;;;36.10;17.13;;;;;;;4.96;64.60;100868.77;126226;1099;104299;-77
2021/04/17 02:53:24;;;;;;;32.80;17.70;;;;;;;4.98;64.62;100867.16;126216;1099;104229;-77
2021/04/17 02:55:53;;;;;;;33.93;17.20;;;;;;;4.99;64.28;100860.27;126196;1099;104169;-77
2021/04/17 02:58:23;;;;;;;35.73;18.70;;;;;;;4.97;63.87;100861.85;126183;1099;104174;-77
2021/04/17 03:00:52;;;;;;;33.37;17.47;;;;;;;4.95;64.22;100859.16;126124;1099;104140;-77
2021/04/17 03:03:20;;;;;;;38.83;18.53;;;;;;;4.94;64.67;100859.98;126166;1097;104165;-77
2021/04/17 03:05:49;;;;;;;41.87;18.83;;;;;;;4.92;64.69;100855.47;126135;1099;104160;-77
2021/04/17 03:08:22;;;;;;;34.47;17.63;;;;;;;4.90;64.86;100857.97;126109;1099;104162;-77
2021/04/17 03:10:51;;;;;;;33.60;17.47;;;;;;;4.85;64.87;100859.39;126110;1099;104579;-77
2021/04/17 03:13:19;;;;;;;32.17;17.27;;;;;;;4.77;64.87;100856.29;126169;1099;104156;-77
2021/04/17 03:15:48;;;;;;;32.90;17.60;;;;;;;4.75;64.86;100862.18;126155;1099;104427;-77
2021/04/17 03:18:17;;;;;;;33.07;17.43;;;;;;;4.71;64.68;100855.00;126107;1099;104134;-77
2021/04/17 03:20:46;;;;;;;34.77;16.60;;;;;;;4.70;64.51;100866.19;126082;1099;104363;-77
2021/04/17 03:23:15;;;;;;;38.93;16.37;;;;;;;4.70;64.85;100860.99;126174;1099;104169;-77
2021/04/17 03:25:44;;;;;;;30.60;15.70;;;;;;;4.71;65.05;100865.41;126223;1099;104158;-76
2021/04/17 03:28:13;;;;;;;31.93;16.47;;;;;;;4.65;65.02;100871.98;126193;1099;104284;-77
2021/04/17 03:30:41;;;;;;;33.93;17.93;;;;;;;4.58;64.93;100880.20;126100;1098;104268;-77
2021/04/17 03:33:10;;;;;;;30.73;17.50;;;;;;;4.47;64.37;100886.36;126115;1099;104275;-77
2021/04/17 03:35:39;;;;;;;32.47;15.90;;;;;;;4.34;64.66;100889.84;126166;1099;104153;-77
2021/04/17 03:38:08;;;;;;;30.35;15.85;;;;;;;4.26;65.25;100891.94;125251;1099;104150;-77
2021/04/17 03:40:37;;;;;;;32.57;16.17;;;;;;;4.20;64.53;100888.03;125234;1099;104201;-77
2021/04/17 03:43:05;;;;;;;29.17;14.97;;;;;;;4.18;64.60;100885.33;125250;1099;104300;-77
2021/04/17 03:45:37;;;;;;;30.53;15.50;;;;;;;4.20;64.80;100891.52;125211;1099;104233;-77
2021/04/17 03:48:09;;;;;;;28.07;14.93;;;;;;;4.27;65.03;100887.63;125251;1099;104280;-77
2021/04/17 03:50:41;;;;;;;26.87;14.00;;;;;;;4.32;65.13;100889.75;125266;1099;104166;-77
2021/04/17 03:53:11;;;;;;;28.13;14.67;;;;;;;4.41;65.93;100886.88;125241;1099;104822;-77
2021/04/17 03:55:42;;;;;;;28.80;14.10;;;;;;;4.53;65.40;100891.08;125111;1099;104159;-77
2021/04/17 03:58:11;;;;;;;30.90;14.67;;;;;;;4.63;65.70;100891.78;125224;1099;104242;-77
2021/04/17 04:00:40;;;;;;;30.57;14.40;;;;;;;4.76;65.42;100893.48;125184;1100;104211;-77
2021/04/17 04:03:09;;;;;;;25.20;13.20;;;;;;;4.82;65.57;100891.28;125285;1099;104214;-77
2021/04/17 04:05:38;;;;;;;26.50;13.10;;;;;;;4.78;65.83;100885.78;125265;1099;104174;-77
2021/04/17 04:08:07;;;;;;;26.40;12.80;;;;;;;4.70;65.33;100890.48;125154;1099;104388;-77
2021/04/17 04:10:36;;;;;;;26.13;13.40;;;;;;;4.65;65.74;100892.77;125869;1099;104296;-77
2021/04/17 04:13:05;;;;;;;26.87;13.80;;;;;;;4.63;65.18;100898.70;126095;1099;104223;-77
2021/04/17 04:15:34;;;;;;;28.23;14.33;;;;;;;4.61;65.49;100887.27;126213;1099;104850;-77
2021/04/17 04:18:03;;;;;;;28.73;14.13;;;;;;;4.61;65.29;100895.99;126181;1099;104160;-77
2021/04/17 04:20:32;;;;;;;27.27;14.27;;;;;;;4.64;65.92;100901.39;126133;1099;104582;-77
2021/04/17 04:23:02;;;;;;;30.57;13.93;;;;;;;4.63;66.06;100901.30;126125;1099;104194;-77
2021/04/17 04:25:30;;;;;;;28.00;14.30;;;;;;;4.61;65.96;100895.99;126181;1099;104146;-77
2021/04/17 04:27:59;;;;;;;29.70;13.93;;;;;;;4.67;65.47;100891.20;126182;1099;104176;-77
2021/04/17 04:30:28;;;;;;;29.60;14.03;;;;;;;4.71;66.07;100892.29;126128;1099;104213;-77
2021/04/17 04:32:57;;;;;;;27.53;13.73;;;;;;;4.76;65.64;100900.39;126101;1099;104255;-76
2021/04/17 04:35:27;;;;;;;27.27;13.97;;;;;;;4.82;65.55;100901.68;126093;1099;104175;-77
2021/04/17 04:37:55;;;;;;;23.93;13.37;;;;;;;4.85;65.62;100903.59;126076;1099;104166;-77
2021/04/17 04:40:24;;;;;;;26.63;14.53;;;;;;;4.87;65.72;100899.38;126069;1098;104270;-77
2021/04/17 04:42:53;;;;;;;26.63;13.67;;;;;;;4.91;65.76;100898.79;126116;1099;104175;-76
2021/04/17 04:45:22;;;;;;;25.45;12.70;;;;;;;4.96;65.70;100904.29;126127;1099;104348;-77
2021/04/17 04:47:50;;;;;;;27.97;14.37;;;;;;;5.01;65.80;100908.97;126183;1099;104178;-76
2021/04/17 04:50:19;;;;;;;26.87;13.83;;;;;;;5.06;65.84;100911.86;126145;1099;104140;-77
2021/04/17 04:52:48;;;;;;;28.30;14.37;;;;;;;5.12;66.22;100912.25;126096;1099;104277;-76
2021/04/17 04:55:17;;;;;;;29.13;14.33;;;;;;;5.20;65.98;100916.27;126165;1099;104579;-77
2021/04/17 04:57:45;;;;;;;33.23;14.77;;;;;;;5.30;66.47;100915.14;126129;1099;104287;-77
2021/04/17 05:00:16;;;;;;;31.50;15.00;;;;;;;5.38;66.26;100918.23;126167;1099;104175;-77
2021/04/17 05:02:46;;;;;;;31.63;14.73;;;;;;;5.44;66.17;100912.49;126104;1099;104172;-77
2021/04/17 05:05:16;;;;;;;29.80;15.33;;;;;;;5.52;65.84;100913.91;126211;1099;104322;-77
2021/04/17 05:07:46;;;;;;;28.13;14.60;;;;;;;5.60;66.12;100912.66;126199;1099;104150;-78
2021/04/17 05:10:15;;;;;;;30.33;15.20;;;;;;;5.74;66.16;100916.13;126153;1099;104440;-76
2021/04/17 05:12:49;;;;;;;30.77;15.27;;;;;;;5.86;66.35;100919.48;126214;1099;104165;-76
2021/04/17 05:15:18;;;;;;;33.03;15.23;;;;;;;6.02;65.97;100916.13;126138;1098;104175;-76
2021/04/17 05:17:49;;;;;;;33.03;15.30;;;;;;;6.18;66.17;100909.24;126165;1099;104136;-76
2021/04/17 05:20:18;;;;;;;28.50;15.00;;;;;;;6.29;66.10;100915.98;126245;1099;104152;-76
2021/04/17 05:22:47;;;;;;;28.95;14.95;;;;;;;6.42;65.83;100910.70;126122;1099;104290;-76
2021/04/17 05:25:16;;;;;;;29.20;15.13;;;;;;;6.58;66.29;100914.22;126164;1099;104146;-77
2021/04/17 05:27:44;;;;;;;29.70;14.73;;;;;;;6.73;66.11;100908.97;126161;1099;104195;-77
2021/04/17 05:30:15;;;;;;;32.83;14.60;;;;;;;6.87;66.14;100917.59;126169;1099;104146;-77
2021/04/17 05:32:43;;;;;;;26.80;13.93;;;;;;;6.97;66.07;100919.92;126167;1099;104669;-77
2021/04/17 05:35:13;;;;;;;27.40;14.37;;;;;;;7.01;65.63;100921.87;126130;1099;104728;-77
2021/04/17 05:37:42;;;;;;;27.27;14.10;;;;;;;7.08;65.75;100921.42;126143;1099;104159;-77
2021/04/17 05:40:12;;;;;;;25.53;13.30;;;;;;;7.14;65.63;100916.55;126109;1099;104280;-77
2021/04/17 05:42:40;;;;;;;29.33;13.80;;;;;;;7.21;65.60;100912.56;126170;1099;105572;-77
2021/04/17 05:45:10;;;;;;;30.63;13.57;;;;;;;7.32;65.57;100914.08;126191;1099;104220;-77
2021/04/17 05:47:39;;;;;;;25.13;14.03;;;;;;;7.45;65.14;100917.34;126148;1099;104370;-78
2021/04/17 05:50:10;;;;;;;26.97;12.90;;;;;;;7.53;64.93;100916.95;126135;1099;104203;-77
2021/04/17 05:52:39;;;;;;;26.60;13.73;;;;;;;7.61;65.37;100916.48;126170;1099;104145;-77
2021/04/17 05:55:11;;;;;;;26.37;13.73;;;;;;;7.72;65.28;100917.95;126160;1099;104211;-77
2021/04/17 05:57:40;;;;;;;30.93;12.77;;;;;;;7.81;65.23;100909.72;126226;1097;104130;-77
2021/04/17 06:00:11;;;;;;;26.73;13.07;;;;;;;7.89;64.95;100911.91;126179;1099;104621;-77
2021/04/17 06:02:40;;;;;;;27.53;13.77;;;;;;;7.98;65.08;100907.97;126177;1098;104146;-77
2021/04/17 06:05:10;;;;;;;27.57;13.07;;;;;;;8.08;65.26;100910.27;126213;1099;104194;-77
2021/04/17 06:07:39;;;;;;;25.00;12.63;;;;;;;8.19;64.99;100918.66;126224;1099;104200;-77
2021/04/17 06:10:11;;;;;;;24.75;13.10;;;;;;;8.27;65.05;100915.64;126155;1099;104760;-77
2021/04/17 06:12:50;;;;;;;26.13;13.70;;;;;;;8.42;65.15;100923.36;126155;1099;103976;-77
2021/04/17 06:15:19;;;;;;;25.30;12.30;;;;;;;8.56;64.65;100918.86;126195;1099;104646;-77
2021/04/17 06:17:48;;;;;;;26.00;11.23;;;;;;;8.66;64.41;100911.48;126174;1098;105358;-77
2021/04/17 06:20:17;;;;;;;23.37;11.50;;;;;;;8.75;63.99;100914.55;126247;1099;104843;-77
2021/04/17 06:22:45;;;;;;;23.33;11.37;;;;;;;8.85;64.08;100916.81;126175;1099;104223;-78
2021/04/17 06:25:14;;;;;;;23.13;11.07;;;;;;;9.02;64.62;100919.34;126217;1099;104179;-77
2021/04/17 06:27:43;;;;;;;27.50;12.23;;;;;;;9.15;64.01;100925.25;126229;1096;104597;-78
2021/04/17 06:30:13;;;;;;;24.00;11.37;;;;;;;9.29;64.55;100925.91;126256;1099;104127;-77
2021/04/17 06:32:42;;;;;;;27.87;12.60;;;;;;;9.41;63.74;100925.61;126265;1099;104210;-78
2021/04/17 06:35:12;;;;;;;25.23;13.23;;;;;;;9.52;64.17;100923.46;126180;1099;118931;-78
2021/04/17 06:37:41;;;;;;;23.73;12.53;;;;;;;9.62;63.80;100930.05;126275;1099;104297;-76
2021/04/17 06:40:11;;;;;;;24.40;13.07;;;;;;;9.77;64.08;100928.14;126238;1099;104188;-77
2021/04/17 06:42:44;;;;;;;25.70;12.80;;;;;;;9.92;63.86;100924.41;126273;1099;105102;-77
2021/04/17 06:45:14;;;;;;;23.17;11.60;;;;;;;10.01;63.05;100927.45;126206;1098;104146;-77
2021/04/17 06:47:43;;;;;;;25.87;12.40;;;;;;;10.12;63.40;100917.44;126298;1098;104268;-77
2021/04/17 06:50:13;;;;;;;27.17;11.57;;;;;;;10.23;63.13;100922.30;126251;1099;104223;-77
2021/04/17 06:52:44;;;;;;;24.40;12.30;;;;;;;10.36;63.18;100921.17;126265;1099;104201;-78
2021/04/17 06:55:13;;;;;;;28.33;13.50;;;;;;;10.47;63.43;100918.09;126231;1099;104144;-78
2021/04/17 06:57:42;;;;;;;26.77;12.97;;;;;;;10.57;63.14;100913.30;126347;1099;104159;-77
2021/04/17 07:00:13;;;;;;;21.17;11.17;;;;;;;10.70;62.52;100914.70;126274;1099;104142;-77
2021/04/17 07:02:44;;;;;;;25.80;13.00;;;;;;;10.87;62.46;100917.14;126079;1099;104277;-78
2021/04/17 07:05:14;;;;;;;26.00;11.60;;;;;;;10.92;62.34;100915.59;126237;1099;104149;-78
2021/04/17 07:07:43;;;;;;;24.77;11.73;;;;;;;11.05;62.01;100920.52;126296;1099;104139;-78
2021/04/17 07:10:13;;;;;;;22.93;12.23;;;;;;;11.20;62.33;100914.97;126324;1099;104219;-77
2021/04/17 07:12:45;;;;;;;28.33;12.17;;;;;;;11.32;62.06;100923.34;126256;1099;104386;-77
2021/04/17 07:15:18;;;;;;;25.10;14.13;;;;;;;11.40;61.40;100914.87;126162;1099;104350;-78
2021/04/17 07:17:47;;;;;;;26.83;14.13;;;;;;;11.46;61.37;100916.00;126260;1099;104144;-77
2021/04/17 07:20:17;;;;;;;26.93;13.07;;;;;;;11.57;61.19;100910.27;126261;1099;104284;-76
2021/04/17 07:22:46;;;;;;;32.00;13.87;;;;;;;11.72;61.63;100909.94;126267;1099;104340;-77
2021/04/17 07:25:18;;;;;;;27.63;14.13;;;;;;;11.77;61.06;100911.03;126200;1099;104159;-78
2021/04/17 07:27:48;;;;;;;25.10;13.00;;;;;;;11.84;61.03;100903.42;126159;1099;104172;-77
2021/04/17 07:30:33;;;;;;;25.10;14.20;;;;;;;11.94;60.79;100904.69;126275;1099;104152;-77
2021/04/17 07:33:10;;;;;;;26.90;14.30;;;;;;;12.16;60.96;100900.20;126207;1099;104162;-76
2021/04/17 07:35:42;;;;;;;27.63;13.63;;;;;;;12.37;60.35;100887.80;126183;1098;104140;-77
2021/04/17 07:38:16;;;;;;;27.53;14.70;;;;;;;12.48;60.19;100892.52;126184;1099;104142;-77
2021/04/17 07:40:47;;;;;;;24.70;13.33;;;;;;;12.52;59.22;100889.16;126253;1099;102752;-77
2021/04/17 07:43:18;;;;;;;24.20;13.33;;;;;;;12.61;59.46;100891.22;126210;1099;104146;-76
2021/04/17 07:45:46;;;;;;;25.80;13.37;;;;;;;12.59;59.45;100885.91;126214;1099;104194;-78
2021/04/17 07:48:23;;;;;;;31.33;16.03;;;;;;;12.84;60.00;100887.60;126274;1098;104155;-78
2021/04/17 07:50:52;;;;;;;20.73;11.30;;;;;;;13.11;58.90;100881.42;126283;1098;104123;-77
2021/04/17 07:53:33;;;;;;;22.73;11.00;;;;;;;13.31;58.13;100887.31;126296;1098;104163;-77
2021/04/17 07:56:26;;;;;;;24.53;12.03;;;;;;;13.43;58.16;100882.45;126258;1098;104146;-78
2021/04/17 07:58:56;;;;;;;21.87;11.63;;;;;;;13.59;58.62;100881.16;126257;1099;104207;-77
2021/04/17 08:01:26;;;;;;;24.70;12.80;;;;;;;13.89;59.34;100874.98;126299;1099;104181;-77
2021/04/17 08:03:59;;;;;;;24.90;11.55;;;;;;;13.96;58.43;100866.39;126053;1099;104178;-76
2021/04/17 08:06:29;;;;;;;28.13;12.47;;;;;;;14.08;58.53;100875.48;126217;1099;105027;-76
2021/04/17 08:08:59;;;;;;;25.43;11.83;;;;;;;14.25;58.15;100868.91;126240;1099;104191;-76
2021/04/17 08:11:31;;;;;;;17.03;8.57;;;;;;;14.39;56.35;100862.24;126072;1099;104360;-76
2021/04/17 08:14:00;;;;;;;20.33;8.80;;;;;;;14.45;56.94;100860.63;126271;1099;104131;-76
2021/04/17 08:16:29;;;;;;;15.03;7.03;;;;;;;14.55;56.12;100867.91;126195;1099;105479;-77
2021/04/17 08:19:00;;;;;;;14.37;7.37;;;;;;;14.61;57.04;100860.18;126213;1099;104172;-76
2021/04/17 08:21:29;;;;;;;14.20;7.07;;;;;;;14.69;55.75;100871.86;126159;1099;104140;-77
2021/04/17 08:23:58;;;;;;;14.10;6.07;;;;;;;14.91;55.65;100869.70;126120;1099;104203;-77
2021/04/17 08:26:31;;;;;;;12.43;5.40;;;;;;;15.10;55.29;100869.30;126166;1099;104156;-76
2021/04/17 08:29:00;;;;;;;10.90;5.93;;;;;;;15.22;56.49;100873.06;126275;1099;104149;-77
2021/04/17 08:31:32;;;;;;;11.50;5.43;;;;;;;15.26;55.34;100867.00;126231;1099;104140;-76
2021/04/17 08:34:17;;;;;;;10.23;5.20;;;;;;;15.23;54.61;100867.81;126213;1099;104236;-77
2021/04/17 08:36:48;;;;;;;10.37;5.40;;;;;;;15.40;55.39;100857.61;126098;1099;104265;-75
2021/04/17 08:39:42;;;;;;;11.93;5.50;;;;;;;15.53;54.31;100853.47;126245;1099;104291;-75
2021/04/17 08:42:16;;;;;;;10.43;4.93;;;;;;;15.65;54.21;100858.14;126239;1099;104204;-77
2021/04/17 08:44:46;;;;;;;8.90;4.60;;;;;;;15.75;54.12;100857.48;126259;1099;104328;-76
2021/04/17 08:47:35;;;;;;;7.17;3.90;;;;;;;15.83;52.77;100848.81;126027;1099;104227;-76
2021/04/17 08:50:22;;;;;;;7.33;4.30;;;;;;;15.74;52.44;100858.33;126239;1099;104226;-77
2021/04/17 08:53:09;;;;;;;8.53;4.43;;;;;;;15.61;51.92;100854.55;126247;1098;104249;-77
2021/04/17 08:55:49;;;;;;;8.87;4.63;;;;;;;15.57;52.63;100859.74;126263;1099;104214;-76
2021/04/17 08:58:20;;;;;;;11.83;5.33;;;;;;;15.52;51.93;100854.35;126245;1099;107041;-77
2021/04/17 09:01:07;;;;;;;9.73;5.50;;;;;;;15.38;51.79;100863.72;126144;1099;104176;-77
2021/04/17 09:03:38;;;;;;;8.98;5.60;;;;;;;15.15;52.11;100844.73;126252;1099;104188;-76
2021/04/17 09:06:10;;;;;;;13.13;5.40;;;;;;;15.08;51.86;100855.16;126203;1099;104216;-78
2021/04/17 09:08:39;;;;;;;11.30;5.83;;;;;;;14.96;52.25;100852.23;126222;1099;104231;-76
2021/04/17 09:11:32;;;;;;;10.07;5.10;;;;;;;14.88;50.88;100856.42;126289;1099;104140;-77
2021/04/17 09:14:00;;;;;;;8.43;5.30;;;;;;;14.86;51.31;100848.45;126196;1099;104325;-76
2021/04/17 09:16:40;;;;;;;12.53;5.40;;;;;;;14.90;51.75;100846.80;126200;1098;104322;-77
2021/04/17 09:19:08;;;;;;;11.50;5.80;;;;;;;14.89;50.66;100852.94;126286;1099;104146;-78
2021/04/17 09:21:37;;;;;;;13.83;5.80;;;;;;;14.85;51.30;100840.50;126221;1099;104156;-76
2021/04/17 09:24:26;;;;;;;10.53;5.60;;;;;;;14.83;50.91;100839.58;126156;1099;104271;-76
2021/04/17 09:26:55;;;;;;;11.60;5.63;;;;;;;14.86;51.34;100839.66;126065;1099;104229;-76
2021/04/17 09:29:26;;;;;;;12.60;5.93;;;;;;;14.90;50.35;100829.19;126216;1099;104142;-76
2021/04/17 09:32:01;;;;;;;9.27;5.40;;;;;;;15.00;50.31;100839.97;126476;1099;104207;-76
2021/04/17 09:34:38;;;;;;;11.53;5.70;;;;;;;15.05;50.99;100833.95;126228;1099;104248;-76
2021/04/17 09:37:11;;;;;;;10.53;5.57;;;;;;;15.16;51.13;100830.63;126091;1099;104332;-77
2021/04/17 09:39:45;;;;;;;10.70;5.70;;;;;;;15.27;49.74;100834.43;126282;1098;104144;-76
2021/04/17 09:42:14;;;;;;;11.77;5.73;;;;;;;15.37;50.73;100824.94;126312;1098;104219;-76
2021/04/17 09:44:45;;;;;;;10.23;4.93;;;;;;;15.48;50.26;100822.52;126298;1099;104191;-77
2021/04/17 09:47:16;;;;;;;12.73;5.40;;;;;;;15.55;50.45;100829.70;126226;1099;104207;-77
2021/04/17 09:49:47;;;;;;;11.17;4.97;;;;;;;15.54;49.74;100830.58;126281;1099;104290;-77
2021/04/17 09:52:18;;;;;;;9.50;5.10;;;;;;;15.56;49.51;100823.56;126273;1099;104169;-77
2021/04/17 09:54:56;;;;;;;8.10;4.90;;;;;;;15.59;49.40;100828.91;126272;1099;104140;-77
2021/04/17 09:57:26;;;;;;;8.40;4.47;;;;;;;15.55;49.00;100822.68;126287;1099;104157;-78
2021/04/17 09:59:56;;;;;;;10.10;4.77;;;;;;;15.51;49.38;100827.88;126182;1099;104174;-77
2021/04/17 10:02:39;;;;;;;10.97;4.50;;;;;;;15.49;48.76;100817.27;126188;1099;104133;-76
2021/04/17 10:05:11;;;;;;;8.50;4.60;;;;;;;15.51;49.34;100817.30;126314;1099;104143;-77
2021/04/17 10:07:45;;;;;;;8.43;5.17;;;;;;;15.47;49.22;100813.67;126287;1099;104137;-76
2021/04/17 10:10:15;;;;;;;10.68;5.12;;;;;;;15.49;48.30;100819.00;126264;1099;104174;-77
2021/04/17 10:12:54;;;;;;;11.47;5.83;;;;;;;15.40;48.71;100825.00;126238;1099;104242;-77
2021/04/17 10:15:25;;;;;;;11.20;5.43;;;;;;;15.23;48.64;100825.52;126257;1099;104146;-77
2021/04/17 10:17:56;;;;;;;10.23;5.03;;;;;;;15.05;47.38;100827.75;126235;1099;104152;-77
2021/04/17 10:20:26;;;;;;;10.27;5.50;;;;;;;14.95;48.67;100816.09;126152;1099;104246;-77
2021/04/17 10:22:59;;;;;;;10.07;5.17;;;;;;;14.97;48.51;100817.00;126252;1099;104270;-76
2021/04/17 10:25:39;;;;;;;9.73;5.17;;;;;;;15.02;47.94;100819.75;126223;1099;104335;-77
2021/04/17 10:28:13;;;;;;;10.50;5.60;;;;;;;15.02;47.63;100815.38;126060;1099;104143;-77
2021/04/17 10:30:45;;;;;;;14.67;5.80;;;;;;;15.07;47.30;100810.20;126198;1099;104146;-76
2021/04/17 10:33:15;;;;;;;10.07;5.30;;;;;;;15.16;47.73;100814.77;126189;1099;104270;-76
2021/04/17 10:35:46;;;;;;;11.20;5.47;;;;;;;15.25;47.16;100814.98;126243;1098;104147;-76
2021/04/17 10:38:30;;;;;;;10.57;5.53;;;;;;;15.26;46.81;100807.08;126229;1099;104296;-76
2021/04/17 10:41:01;;;;;;;10.50;5.35;;;;;;;15.36;46.69;100805.52;126238;1099;104147;-77
2021/04/17 10:43:30;;;;;;;11.87;5.80;;;;;;;15.50;47.19;100802.28;126273;1099;104143;-77
2021/04/17 10:46:01;;;;;;;9.60;5.70;;;;;;;15.58;46.37;100798.02;126234;1099;104792;-76
2021/04/17 10:48:42;;;;;;;9.40;5.35;;;;;;;15.63;46.52;100797.27;126191;1099;104294;-76
2021/04/17 10:51:13;;;;;;;9.10;5.03;;;;;;;15.74;46.32;100794.83;126217;1099;104261;-77
2021/04/17 10:53:43;;;;;;;8.43;4.70;;;;;;;15.83;46.82;100791.48;126237;1098;104140;-76
2021/04/17 10:56:15;;;;;;;9.87;4.80;;;;;;;15.92;46.04;100793.42;126132;1099;104153;-75
2021/04/17 10:58:46;;;;;;;8.03;4.73;;;;;;;16.04;46.44;100788.36;126058;1099;104165;-76
2021/04/17 11:01:22;;;;;;;10.63;5.00;;;;;;;16.13;46.35;100791.16;126141;1099;104214;-77
2021/04/17 11:03:53;;;;;;;12.20;4.80;;;;;;;16.11;46.18;100792.91;126249;1099;104149;-76
2021/04/17 11:06:23;;;;;;;9.47;4.90;;;;;;;16.09;45.82;100794.61;126030;1098;104339;-77
2021/04/17 11:09:08;;;;;;;8.70;4.47;;;;;;;16.13;46.13;100793.81;126047;1099;104328;-77
2021/04/17 11:11:38;;;;;;;7.80;4.63;;;;;;;16.25;45.50;100786.94;126226;1098;104542;-77
2021/04/17 11:14:08;;;;;;;7.03;4.27;;;;;;;16.40;45.98;100789.84;126210;1099;101694;-77
2021/04/17 11:16:41;;;;;;;9.17;4.43;;;;;;;16.37;44.39;100779.20;126265;1099;104153;-77
2021/04/17 11:19:25;;;;;;;7.67;4.80;;;;;;;16.28;44.91;100779.05;126224;1098;104262;-76
2021/04/17 11:22:09;;;;;;;9.50;4.80;;;;;;;16.27;44.81;100775.52;126220;1099;104195;-76